Time;durP1;ratioP1;P1;durP2;ratioP2;P2;SDS_P1;SDS_P2;PMS_P1;PMS_P2;Temp;Humidity;BMP_temperature;BMP_pressure;BME280_temperature;BME280_humidity;BME280_pressure;Samples;Min_cycle;Max_cycle;Signal;HPM_P1;HPM_P2
2021/12/15 00:00:24;;;;;;;130.40;35.60;;;;;;;;;;4990106;28;20521;-68
2021/12/15 00:02:52;;;;;;;125.03;32.85;;;;;;;;;;4997517;28;20849;-68
2021/12/15 00:05:22;;;;;;;132.15;35.80;;;;;;;;;;4986169;28;20030;-68
2021/12/15 00:07:48;;;;;;;136.50;35.65;;;7.40;99.90;;;;;;4990545;28;20034;-63
2021/12/15 00:10:14;;;;;;;130.75;36.13;;;;;;;;;;4994167;28;20030;-63
2021/12/15 00:12:40;;;;;;;127.28;34.72;;;;;;;;;;4990038;28;20070;-63
2021/12/15 00:15:06;;;;;;;138.13;35.88;;;;;;;;;;4997751;28;20482;-63
2021/12/15 00:17:32;;;;;;;124.53;34.25;;;;;;;;;;4992591;28;20141;-63
2021/12/15 00:19:58;;;;;;;138.25;35.25;;;;;;;;;;4987227;28;20052;-63
2021/12/15 00:22:24;;;;;;;135.20;35.53;;;;;;;;;;4989427;28;20045;-64
2021/12/15 00:24:50;;;;;;;136.25;35.08;;;;;;;;;;4989809;28;20042;-64
2021/12/15 00:27:16;;;;;;;131.88;35.78;;;;;;;;;;4990888;28;20041;-64
2021/12/15 00:29:43;;;;;;;143.10;36.38;;;;;;;;;;4987756;28;20030;-64
2021/12/15 00:32:10;;;;;;;128.93;34.97;;;8.00;99.90;;;;;;4986210;28;20066;-64
2021/12/15 00:34:37;;;;;;;139.90;37.58;;;;;;;;;;4992250;28;20117;-63
2021/12/15 00:37:03;;;;;;;139.60;34.78;;;;;;;;;;4990951;28;20124;-64
2021/12/15 00:39:29;;;;;;;142.63;37.45;;;;;;;;;;4999686;28;20329;-64
2021/12/15 00:41:55;;;;;;;138.07;35.63;;;;;;;;;;4985498;28;20034;-70
2021/12/15 00:44:22;;;;;;;132.10;35.55;;;;;;;;;;4996119;28;20030;-70
2021/12/15 00:46:50;;;;;;;134.48;36.28;;;;;;;;;;4998259;28;20054;-69
2021/12/15 00:49:16;;;;;;;151.90;37.33;;;;;;;;;;5001687;28;20037;-70
2021/12/15 00:51:42;;;;;;;137.57;35.55;;;8.00;99.90;;;;;;4992067;28;20081;-69
2021/12/15 00:54:08;;;;;;;130.45;35.63;;;8.00;99.90;;;;;;4996896;28;20030;-65
2021/12/15 00:56:34;;;;;;;126.28;34.67;;;8.10;99.90;;;;;;4996162;28;20485;-65
2021/12/15 00:59:00;;;;;;;126.53;34.55;;;8.00;99.90;;;;;;4984200;28;20036;-64
2021/12/15 01:01:27;;;;;;;126.47;35.72;;;;;;;;;;4971603;28;20410;-64
2021/12/15 01:03:52;;;;;;;119.57;33.38;;;8.00;99.90;;;;;;4997223;28;20038;-65
2021/12/15 01:06:20;;;;;;;120.72;33.80;;;;;;;;;;4988345;28;20043;-65
2021/12/15 01:08:47;;;;;;;125.90;33.28;;;;;;;;;;4996535;28;20068;-65
2021/12/15 01:11:52;;;;;;;112.70;34.30;;;;;;;;;;4986999;28;20038;-64
2021/12/15 01:22:14;;;;;;;112.45;30.42;;;;;;;;;;4986763;28;20461;-64
2021/12/15 01:24:40;;;;;;;121.10;31.88;;;7.80;99.90;;;;;;4987833;28;20065;-64
2021/12/15 01:27:06;;;;;;;120.05;33.13;;;;;;;;;;4994856;28;20030;-64
2021/12/15 01:29:31;;;;;;;113.78;32.20;;;8.20;99.90;;;;;;4992012;28;20032;-64
2021/12/15 01:31:57;;;;;;;117.35;33.50;;;8.00;99.90;;;;;;5002301;28;21215;-64
2021/12/15 01:34:22;;;;;;;116.97;31.83;;;7.50;99.90;;;;;;4982567;28;20559;-64
2021/12/15 01:36:48;;;;;;;109.63;31.52;;;;;;;;;;4986097;28;20026;-64
2021/12/15 01:39:14;;;;;;;125.78;33.67;;;;;;;;;;4990320;28;20041;-64
2021/12/15 01:41:42;;;;;;;113.63;30.67;;;;;;;;;;4982635;28;20049;-64
2021/12/15 01:46:56;;;;;;;102.07;30.75;;;;;;;;;;4992382;28;20034;-69
2021/12/15 01:49:22;;;;;;;111.28;32.42;;;;;;;;;;4985776;28;20097;-68
2021/12/15 01:51:47;;;;;;;98.82;31.63;;;8.00;99.90;;;;;;4994406;28;20168;-69
2021/12/15 01:54:13;;;;;;;108.90;29.75;;;;;;;;;;4982171;28;20027;-69
2021/12/15 01:56:39;;;;;;;104.72;30.90;;;;;;;;;;4997985;28;20045;-69
2021/12/15 01:59:05;;;;;;;97.60;29.73;;;;;;;;;;5002142;28;20522;-69
2021/12/15 02:01:31;;;;;;;98.43;28.75;;;;;;;;;;4999543;28;20061;-63
2021/12/15 02:03:57;;;;;;;91.20;29.08;;;7.90;99.90;;;;;;4993691;28;20069;-63
2021/12/15 02:06:23;;;;;;;89.68;29.52;;;9.70;99.90;;;;;;5000338;28;20122;-64
2021/12/15 02:08:49;;;;;;;95.13;27.65;;;8.00;99.90;;;;;;4988796;28;20073;-64
2021/12/15 02:11:15;;;;;;;84.00;26.77;;;;;;;;;;5001539;28;20025;-64
2021/12/15 02:13:41;;;;;;;86.70;27.58;;;;;;;;;;4999240;28;20034;-64
2021/12/15 02:16:07;;;;;;;84.10;26.38;;;8.00;99.90;;;;;;5003963;28;20034;-64
2021/12/15 02:18:32;;;;;;;82.45;27.42;;;7.60;99.90;;;;;;4999696;28;20049;-64
2021/12/15 02:20:59;;;;;;;86.38;27.77;;;8.00;99.90;;;;;;5000440;28;20386;-64
2021/12/15 02:23:32;;;;;;;90.03;27.90;;;;;;;;;;4999132;28;20022;-63
2021/12/15 02:25:58;;;;;;;87.63;27.25;;;;;;;;;;5002706;28;20034;-63
2021/12/15 02:28:24;;;;;;;81.65;27.08;;;8.00;99.90;;;;;;4999137;28;20025;-64
2021/12/15 02:30:55;;;;;;;86.10;26.10;;;;;;;;;;4991514;28;20478;-64
2021/12/15 02:38:34;;;;;;;81.13;26.80;;;8.10;99.90;;;;;;4994198;28;20037;-63
2021/12/15 02:41:07;;;;;;;82.63;25.73;;;;;;;;;;5001913;28;20061;-63
2021/12/15 02:43:33;;;;;;;85.10;27.25;;;;;;;;;;5000687;28;20030;-69
2021/12/15 02:45:59;;;;;;;86.72;26.27;;;;;;;;;;5000882;28;20044;-69
2021/12/15 02:48:25;;;;;;;84.38;27.50;;;;;;;;;;4991161;28;20023;-69
2021/12/15 02:50:51;;;;;;;76.38;24.85;;;8.20;99.90;;;;;;4985833;28;20936;-69
2021/12/15 02:53:17;;;;;;;78.22;26.02;;;;;;;;;;4987960;28;20028;-64
2021/12/15 02:55:43;;;;;;;75.10;24.73;;;;;;;;;;4994489;28;20030;-64
2021/12/15 02:58:09;;;;;;;73.85;24.80;;;;;;;;;;4999831;28;20036;-64
2021/12/15 03:00:48;;;;;;;82.18;24.95;;;7.60;99.90;;;;;;4987634;28;20084;-64
2021/12/15 03:05:46;;;;;;;82.68;26.10;;;;;;;;;;4984425;28;20045;-64
2021/12/15 03:08:45;;;;;;;68.65;22.67;;;;;;;;;;5000292;28;20100;-63
2021/12/15 03:16:40;;;;;;;73.97;23.95;;;7.80;99.90;;;;;;4993397;28;20034;-64
2021/12/15 03:19:06;;;;;;;72.40;24.50;;;;;;;;;;4985212;28;20030;-64
2021/12/15 03:21:32;;;;;;;69.30;23.90;;;;;;;;;;4998824;28;20031;-64
2021/12/15 03:23:58;;;;;;;68.03;22.70;;;;;;;;;;4995399;28;20059;-64
2021/12/15 03:26:26;;;;;;;70.93;22.42;;;;;;;;;;4988278;28;20022;-68
2021/12/15 03:34:48;;;;;;;72.05;21.70;;;;;;;;;;4984980;28;20060;-69
2021/12/15 03:37:23;;;;;;;75.47;22.80;;;;;;;;;;4993727;28;20621;-69
2021/12/15 03:39:48;;;;;;;67.50;24.30;;;7.90;99.90;;;;;;5003111;28;20042;-69
2021/12/15 03:42:16;;;;;;;68.65;23.42;;;;;;;;;;4990510;28;20026;-69
2021/12/15 03:44:42;;;;;;;64.68;23.08;;;;;;;;;;4990919;28;20502;-69
2021/12/15 03:47:08;;;;;;;70.22;24.05;;;;;;;;;;4990896;28;20054;-64
2021/12/15 03:49:35;;;;;;;67.20;23.33;;;7.70;99.90;;;;;;4986079;28;20026;-64
2021/12/15 03:52:01;;;;;;;76.15;25.00;;;8.00;99.90;;;;;;4991295;28;20148;-64
2021/12/15 03:54:27;;;;;;;63.70;21.85;;;;;;;;;;4986773;28;20494;-64
2021/12/15 03:56:54;;;;;;;66.43;22.48;;;;;;;;;;4989234;28;20034;-64
2021/12/15 03:59:23;;;;;;;68.25;22.65;;;;;;;;;;4985401;28;20038;-64
2021/12/15 04:01:49;;;;;;;61.47;22.10;;;;;;;;;;4985744;28;20050;-64
2021/12/15 04:04:15;;;;;;;65.32;21.05;;;;;;;;;;4998837;28;20072;-64
2021/12/15 04:06:41;;;;;;;66.68;21.98;;;;;;;;;;4996758;28;20036;-64
2021/12/15 04:09:07;;;;;;;61.65;22.20;;;;;;;;;;4996048;28;20101;-64
2021/12/15 04:11:34;;;;;;;57.38;20.15;;;;;;;;;;4995103;28;20038;-64
2021/12/15 04:14:00;;;;;;;48.38;18.40;;;;;;;;;;4987056;28;20040;-64
2021/12/15 04:18:58;;;;;;;66.60;22.23;;;;;;;;;;5004316;28;20081;-64
2021/12/15 04:21:24;;;;;;;61.00;20.05;;;8.10;99.90;;;;;;4986917;28;20061;-64
2021/12/15 04:23:50;;;;;;;52.58;19.60;;;;;;;;;;4990619;28;20924;-64
2021/12/15 04:26:16;;;;;;;51.13;19.02;;;;;;;;;;4987158;28;20041;-64
2021/12/15 04:28:42;;;;;;;55.85;19.75;;;;;;;;;;4991346;28;20805;-64
2021/12/15 04:31:08;;;;;;;53.75;19.27;;;;;;;;;;4991383;28;20054;-64
2021/12/15 04:33:34;;;;;;;59.83;19.70;;;;;;;;;;4988991;28;20085;-64
2021/12/15 04:36:01;;;;;;;54.50;20.40;;;;;;;;;;4989953;28;20038;-64
2021/12/15 04:38:27;;;;;;;54.53;19.80;;;;;;;;;;4990765;28;20026;-63
2021/12/15 04:40:53;;;;;;;53.58;20.73;;;;;;;;;;4986899;28;20046;-64
2021/12/15 04:43:19;;;;;;;56.38;21.20;;;;;;;;;;4985991;28;20085;-64
2021/12/15 04:45:45;;;;;;;59.47;20.90;;;;;;;;;;4986836;28;20045;-64
2021/12/15 04:48:11;;;;;;;57.83;19.45;;;;;;;;;;4998928;28;20425;-64
2021/12/15 04:50:37;;;;;;;58.40;19.83;;;;;;;;;;4986690;28;20513;-64
2021/12/15 04:53:03;;;;;;;64.63;20.38;;;;;;;;;;4987165;28;20026;-64
2021/12/15 04:55:29;;;;;;;51.92;18.83;;;;;;;;;;4989108;28;20031;-64
2021/12/15 04:57:55;;;;;;;50.70;18.90;;;;;;;;;;4990755;28;20034;-64
2021/12/15 05:00:21;;;;;;;53.88;20.08;;;;;;;;;;4991374;28;20037;-64
2021/12/15 05:02:50;;;;;;;61.40;20.95;;;;;;;;;;4998562;28;20026;-64
2021/12/15 05:05:16;;;;;;;53.95;19.48;;;;;;;;;;4986840;28;20536;-64
2021/12/15 05:07:42;;;;;;;54.30;19.83;;;;;;;;;;4987820;28;20486;-64
2021/12/15 05:10:08;;;;;;;61.90;20.50;;;;;;;;;;4996418;28;20046;-64
2021/12/15 05:12:34;;;;;;;60.55;20.52;;;;;;;;;;4988810;28;20030;-64
2021/12/15 05:15:00;;;;;;;55.60;20.15;;;;;;;;;;4990544;28;20040;-64
2021/12/15 05:17:26;;;;;;;61.97;19.67;;;;;;;;;;4991349;28;20031;-64
2021/12/15 05:19:57;;;;;;;57.17;20.48;;;;;;;;;;4988625;28;20034;-64
2021/12/15 05:22:23;;;;;;;60.90;22.20;;;;;;;;;;4988389;28;20037;-64
2021/12/15 05:24:50;;;;;;;57.85;20.35;;;;;;;;;;4982240;28;20065;-64
2021/12/15 05:27:16;;;;;;;59.72;19.95;;;;;;;;;;4983871;28;20030;-64
2021/12/15 05:29:42;;;;;;;55.95;21.15;;;;;;;;;;4996701;28;20127;-64
2021/12/15 05:32:09;;;;;;;55.97;20.73;;;;;;;;;;4996895;28;20121;-64
2021/12/15 05:34:34;;;;;;;58.40;20.77;;;8.10;99.90;;;;;;4990159;28;20566;-64
2021/12/15 05:37:00;;;;;;;51.38;18.50;;;;;;;;;;4985374;28;20033;-64
2021/12/15 05:39:26;;;;;;;61.00;21.25;;;;;;;;;;4982267;28;20031;-63
2021/12/15 05:41:52;;;;;;;45.97;17.83;;;;;;;;;;4985450;28;20088;-64
2021/12/15 05:44:18;;;;;;;53.08;19.73;;;;;;;;;;4992626;28;20061;-64
2021/12/15 05:46:44;;;;;;;45.70;17.77;;;;;;;;;;4996577;28;20050;-64
2021/12/15 05:49:10;;;;;;;48.20;18.42;;;;;;;;;;4996298;28;20042;-64
2021/12/15 05:51:37;;;;;;;43.75;18.40;;;;;;;;;;4966962;28;20045;-64
2021/12/15 05:54:03;;;;;;;45.97;18.98;;;;;;;;;;4984338;28;20030;-64
2021/12/15 05:56:29;;;;;;;45.60;18.73;;;;;;;;;;4987489;28;20037;-64
2021/12/15 05:58:55;;;;;;;47.67;17.80;;;7.60;99.90;;;;;;4991312;28;20172;-64
2021/12/15 06:01:21;;;;;;;48.22;18.33;;;;;;;;;;4985110;28;20741;-64
2021/12/15 06:03:47;;;;;;;43.90;18.08;;;;;;;;;;4984774;28;20053;-64
2021/12/15 06:06:13;;;;;;;45.28;17.92;;;;;;;;;;4981842;28;20045;-64
2021/12/15 06:08:39;;;;;;;43.42;17.40;;;;;;;;;;4992458;28;20030;-64
2021/12/15 06:11:05;;;;;;;44.92;17.38;;;;;;;;;;4990118;28;20034;-64
2021/12/15 06:13:31;;;;;;;44.83;17.27;;;;;;;;;;4987035;28;20030;-63
2021/12/15 06:15:57;;;;;;;35.55;16.00;;;;;;;;;;4986637;28;20034;-64
2021/12/15 06:18:23;;;;;;;38.75;16.40;;;;;;;;;;4987325;28;20080;-64
2021/12/15 06:20:50;;;;;;;39.65;15.80;;;;;;;;;;4982867;28;20046;-64
2021/12/15 06:23:17;;;;;;;35.85;15.10;;;;;;;;;;4995951;28;20033;-64
2021/12/15 06:25:43;;;;;;;38.20;15.20;;;;;;;;;;4992853;28;20137;-64
2021/12/15 06:28:09;;;;;;;42.10;16.42;;;;;;;;;;4989375;28;20864;-64
2021/12/15 06:30:36;;;;;;;38.00;15.02;;;;;;;;;;4995226;28;20113;-64
2021/12/15 06:33:02;;;;;;;38.22;15.82;;;;;;;;;;4991526;28;20034;-63
2021/12/15 06:35:28;;;;;;;41.80;17.33;;;;;;;;;;4984263;28;20026;-64
2021/12/15 06:37:54;;;;;;;40.95;15.85;;;;;;;;;;4987785;28;20505;-64
2021/12/15 06:40:20;;;;;;;42.17;16.10;;;8.40;99.90;;;;;;4994283;28;20327;-64
2021/12/15 06:42:46;;;;;;;37.97;15.23;;;;;;;;;;4991297;28;20165;-64
2021/12/15 06:45:14;;;;;;;40.17;17.00;;;;;;;;;;4991228;28;20084;-64
2021/12/15 07:00:28;;;;;;;45.38;17.42;;;;;;;;;;4995483;28;20057;-64
2021/12/15 07:02:54;;;;;;;48.42;18.05;;;;;;;;;;4985567;28;20057;-64
2021/12/15 07:05:20;;;;;;;46.55;18.23;;;8.50;99.90;;;;;;5002202;28;20269;-64
2021/12/15 07:07:45;;;;;;;43.15;16.38;;;8.30;99.90;;;;;;4976121;28;20034;-64
2021/12/15 07:10:11;;;;;;;36.30;14.95;;;;;;;;;;4995303;28;20099;-64
2021/12/15 07:12:37;;;;;;;35.97;15.05;;;;;;;;;;4987050;28;20027;-64
2021/12/15 07:15:04;;;;;;;47.47;21.23;;;;;;;;;;4985321;28;20053;-64
2021/12/15 07:17:30;;;;;;;53.72;29.25;;;;;;;;;;4997428;28;20132;-64
2021/12/15 07:24:54;;;;;;;47.42;19.10;;;;;;;;;;4989097;28;20041;-64
2021/12/15 07:27:20;;;;;;;35.50;15.40;;;;;;;;;;4985707;28;20045;-64
2021/12/15 07:29:46;;;;;;;36.45;15.38;;;;;;;;;;4992166;28;20039;-64
2021/12/15 07:32:12;;;;;;;55.63;29.88;;;;;;;;;;4982655;28;20100;-64
2021/12/15 07:34:38;;;;;;;36.10;16.08;;;;;;;;;;4993881;28;20044;-64
2021/12/15 07:37:04;;;;;;;59.10;33.65;;;;;;;;;;4991747;28;20038;-64
2021/12/15 07:39:30;;;;;;;60.80;33.58;;;;;;;;;;4990769;28;20034;-64
2021/12/15 07:42:07;;;;;;;42.78;22.30;;;;;;;;;;4986495;28;20053;-64
2021/12/15 07:44:33;;;;;;;49.45;27.30;;;;;;;;;;4983226;28;20038;-64
2021/12/15 07:46:59;;;;;;;41.47;18.88;;;;;;;;;;4984713;28;20026;-64
2021/12/15 07:49:25;;;;;;;38.55;19.00;;;8.00;99.90;;;;;;4989050;28;20068;-64
2021/12/15 07:51:59;;;;;;;32.83;14.35;;;;;;;;;;4992471;28;20800;-64
2021/12/15 07:54:25;;;;;;;35.35;16.25;;;;;;;;;;4996412;28;20109;-64
2021/12/15 07:56:51;;;;;;;32.50;15.40;;;;;;;;;;4992504;28;20072;-64
2021/12/15 07:59:17;;;;;;;35.03;15.93;;;;;;;;;;4983039;28;20040;-64
2021/12/15 08:01:43;;;;;;;42.15;16.30;;;;;;;;;;4986353;28;20125;-64
2021/12/15 08:04:09;;;;;;;36.25;16.98;;;;;;;;;;5000976;28;20029;-64
2021/12/15 08:06:35;;;;;;;40.70;19.75;;;;;;;;;;4992038;28;20040;-64
2021/12/15 08:09:03;;;;;;;38.72;17.77;;;;;;;;;;4993663;28;20049;-64
2021/12/15 08:11:29;;;;;;;37.40;17.13;;;;;;;;;;4994927;28;20124;-64
2021/12/15 08:13:57;;;;;;;30.13;13.75;;;;;;;;;;4995802;28;20045;-64
2021/12/15 08:16:22;;;;;;;46.42;18.25;;;8.80;99.90;;;;;;4996557;28;20041;-64
2021/12/15 08:18:48;;;;;;;44.15;19.13;;;;;;;;;;4991058;28;20470;-64
2021/12/15 08:21:14;;;;;;;63.80;22.15;;;;;;;;;;4997297;28;20905;-64
2021/12/15 08:23:40;;;;;;;44.25;17.63;;;;;;;;;;4993615;28;20037;-64
2021/12/15 08:26:06;;;;;;;43.53;20.90;;;;;;;;;;4984237;28;20031;-64
2021/12/15 08:28:33;;;;;;;36.67;17.17;;;;;;;;;;4982081;28;20572;-64
2021/12/15 08:30:59;;;;;;;34.80;14.32;;;8.70;99.90;;;;;;4995999;28;20041;-64
2021/12/15 08:33:25;;;;;;;35.85;14.52;;;;;;;;;;4988602;28;20022;-64
2021/12/15 08:35:53;;;;;;;30.83;14.60;;;;;;;;;;4988038;28;20030;-64
2021/12/15 08:38:19;;;;;;;26.63;13.23;;;;;;;;;;4998267;28;20041;-64
2021/12/15 08:40:45;;;;;;;55.20;20.90;;;8.80;99.90;;;;;;4990532;28;20117;-63
2021/12/15 08:43:10;;;;;;;34.10;15.38;;;9.10;99.90;;;;;;4984246;28;20488;-63
2021/12/15 08:45:36;;;;;;;30.50;15.15;;;;;;;;;;4987354;28;20556;-63
2021/12/15 08:48:03;;;;;;;38.03;16.23;;;;;;;;;;4997091;28;20041;-65
2021/12/15 08:50:29;;;;;;;25.13;12.75;;;;;;;;;;4989203;28;20062;-63
2021/12/15 08:52:55;;;;;;;28.08;13.05;;;;;;;;;;4986088;28;20471;-64
2021/12/15 08:55:21;;;;;;;26.15;12.98;;;;;;;;;;4985616;28;20147;-63
2021/12/15 08:57:50;;;;;;;28.50;14.18;;;;;;;;;;4986883;28;20372;-63
2021/12/15 09:00:16;;;;;;;31.38;14.85;;;;;;;;;;4999870;28;20022;-63
2021/12/15 09:02:42;;;;;;;27.75;13.00;;;;;;;;;;4995670;28;20080;-63
2021/12/15 09:05:08;;;;;;;35.25;12.95;;;;;;;;;;4984146;28;20493;-66
2021/12/15 09:07:34;;;;;;;26.45;13.75;;;;;;;;;;4985187;28;20772;-64
2021/12/15 09:10:00;;;;;;;27.60;12.68;;;;;;;;;;4986019;28;20040;-63
2021/12/15 09:12:25;;;;;;;28.50;14.52;;;8.80;99.90;;;;;;4994604;28;20037;-63
2021/12/15 09:14:52;;;;;;;32.65;16.30;;;;;;;;;;4989787;28;20030;-64
2021/12/15 09:17:18;;;;;;;30.35;14.75;;;;;;;;;;4999599;28;20030;-66
2021/12/15 09:19:44;;;;;;;29.70;13.68;;;;;;;;;;4988440;28;20100;-68
2021/12/15 09:22:10;;;;;;;25.55;13.20;;;;;;;;;;4986864;28;20041;-67
2021/12/15 09:24:36;;;;;;;26.98;13.13;;;;;;;;;;4981750;28;20112;-67
2021/12/15 09:27:02;;;;;;;24.65;12.65;;;;;;;;;;4999516;28;20100;-67
2021/12/15 09:29:28;;;;;;;31.13;15.43;;;;;;;;;;4987294;28;20034;-69
2021/12/15 09:31:54;;;;;;;27.40;13.80;;;;;;;;;;4987085;28;20036;-67
2021/12/15 09:34:20;;;;;;;33.83;16.63;;;;;;;;;;4987845;28;20026;-67
2021/12/15 09:36:46;;;;;;;27.45;13.93;;;;;;;;;;4968070;28;20101;-67
2021/12/15 09:39:12;;;;;;;24.50;12.63;;;;;;;;;;4986808;28;20034;-68
2021/12/15 09:41:38;;;;;;;21.98;11.80;;;;;;;;;;4987746;28;20034;-68
2021/12/15 09:44:09;;;;;;;29.13;15.02;;;;;;;;;;4992224;28;20080;-68
2021/12/15 09:47:08;;;;;;;21.55;12.18;;;;;;;;;;4988510;28;20401;-69
2021/12/15 10:06:07;;;;;;;30.00;14.85;;;;;;;;;;4993189;28;20041;-71
2021/12/15 10:11:43;;;;;;;24.48;11.73;;;;;;;;;;4991009;28;20052;-68
2021/12/15 10:19:33;;;;;;;21.73;10.75;;;;;;;;;;4992436;28;20038;-68
2021/12/15 10:21:58;;;;;;;22.35;11.70;;;9.50;99.90;;;;;;4998518;28;20038;-68
2021/12/15 10:24:24;;;;;;;23.10;11.63;;;;;;;;;;4999060;28;20026;-68
2021/12/15 10:26:50;;;;;;;20.98;11.68;;;;;;;;;;5011118;28;20116;-68
2021/12/15 10:29:18;;;;;;;21.30;10.88;;;;;;;;;;4991141;28;20018;-70
2021/12/15 10:31:44;;;;;;;20.95;11.82;;;;;;;;;;4997533;28;20045;-68
2021/12/15 10:34:10;;;;;;;23.25;12.85;;;;;;;;;;4994552;28;20141;-68
2021/12/15 10:36:36;;;;;;;38.65;23.73;;;;;;;;;;4996808;28;20026;-68
2021/12/15 10:39:03;;;;;;;34.53;22.75;;;;;;;;;;5004400;28;20362;-69
2021/12/15 10:41:29;;;;;;;24.52;14.88;;;;;;;;;;4993337;28;20125;-69
2021/12/15 10:43:55;;;;;;;23.75;13.85;;;;;;;;;;4999699;28;20081;-69
2021/12/15 10:46:21;;;;;;;33.40;21.52;;;;;;;;;;4998636;28;20037;-70
2021/12/15 10:48:47;;;;;;;22.63;12.35;;;;;;;;;;4994200;28;20034;-69
2021/12/15 10:51:13;;;;;;;21.15;11.10;;;;;;;;;;4996955;28;20018;-69
2021/12/15 10:53:39;;;;;;;18.55;9.65;;;;;;;;;;4999620;28;20150;-68
2021/12/15 10:56:05;;;;;;;20.77;11.05;;;;;;;;;;4993449;28;20103;-68
2021/12/15 10:58:32;;;;;;;17.27;9.75;;;;;;;;;;4999660;28;20473;-68
2021/12/15 11:00:58;;;;;;;20.05;10.70;;;;;;;;;;4991709;28;20038;-69
2021/12/15 11:03:24;;;;;;;20.70;12.50;;;;;;;;;;4996808;28;20028;-69
2021/12/15 11:05:50;;;;;;;35.83;21.23;;;;;;;;;;4999855;28;20445;-68
2021/12/15 11:08:16;;;;;;;20.13;11.20;;;;;;;;;;4996640;28;20108;-68
2021/12/15 11:10:42;;;;;;;29.17;18.90;;;;;;;;;;4999569;28;20038;-69
2021/12/15 11:13:08;;;;;;;19.48;10.90;;;;;;;;;;4996664;28;20096;-69
2021/12/15 11:15:39;;;;;;;19.38;10.73;;;;;;;;;;4993261;28;20478;-69
2021/12/15 11:18:05;;;;;;;16.08;9.38;;;;;;;;;;5001535;28;20477;-68
2021/12/15 11:20:32;;;;;;;16.40;9.73;;;;;;;;;;4999874;28;20033;-69
2021/12/15 11:22:58;;;;;;;15.65;8.93;;;;;;;;;;4991822;28;21475;-69
2021/12/15 11:25:24;;;;;;;17.88;9.90;;;;;;;;;;4998387;28;20057;-69
2021/12/15 11:27:50;;;;;;;21.15;11.35;;;;;;;;;;4993577;28;20042;-69
2021/12/15 11:30:16;;;;;;;17.17;8.88;;;;;;;;;;4995197;28;20030;-68
2021/12/15 11:32:42;;;;;;;23.40;12.75;;;;;;;;;;4996904;28;20030;-69
2021/12/15 11:35:08;;;;;;;16.63;9.55;;;;;;;;;;4996834;28;20079;-69
2021/12/15 11:37:34;;;;;;;16.38;9.65;;;;;;;;;;4995419;28;20038;-69
2021/12/15 11:40:00;;;;;;;16.67;9.63;;;10.40;99.90;;;;;;4982083;28;20747;-68
2021/12/15 11:42:26;;;;;;;22.50;11.65;;;;;;;;;;4997064;28;20034;-68
2021/12/15 11:44:52;;;;;;;17.17;10.02;;;;;;;;;;4998967;28;21022;-68
2021/12/15 11:47:18;;;;;;;15.63;9.10;;;;;;;;;;4998257;28;20561;-68
2021/12/15 11:49:44;;;;;;;17.63;9.40;;;;;;;;;;4994316;28;20133;-68
2021/12/15 11:52:10;;;;;;;18.40;9.50;;;;;;;;;;5002232;28;20028;-68
2021/12/15 11:54:36;;;;;;;18.27;10.32;;;;;;;;;;4989168;28;20033;-68
2021/12/15 11:57:02;;;;;;;20.60;10.23;;;;;;;;;;4994018;28;20022;-68
2021/12/15 11:59:28;;;;;;;17.30;9.05;;;;;;;;;;4999572;28;20156;-68
2021/12/15 12:01:55;;;;;;;18.25;9.48;;;;;;;;;;4999536;28;20056;-68
2021/12/15 12:04:22;;;;;;;20.55;10.25;;;;;;;;;;4993795;28;20109;-68
2021/12/15 12:06:48;;;;;;;22.02;10.45;;;;;;;;;;4996822;28;20097;-68
2021/12/15 12:09:14;;;;;;;27.90;12.57;;;;;;;;;;4983311;28;20037;-68
2021/12/15 12:11:41;;;;;;;23.27;11.63;;;;;;;;;;4996973;28;20132;-69
2021/12/15 12:14:16;;;;;;;16.75;9.40;;;;;;;;;;5000479;28;20026;-67
2021/12/15 12:16:43;;;;;;;20.42;9.63;;;;;;;;;;4997907;28;20045;-69
2021/12/15 12:19:10;;;;;;;20.77;10.02;;;;;;;;;;4994911;28;20115;-68
2021/12/15 12:21:36;;;;;;;17.92;10.38;;;;;;;;;;4993149;28;20168;-65
2021/12/15 12:24:02;;;;;;;21.65;10.00;;;;;;;;;;4999644;28;20081;-65
2021/12/15 12:26:31;;;;;;;19.38;9.88;;;;;;;;;;4996437;28;20034;-65
2021/12/15 12:28:57;;;;;;;22.10;10.60;;;;;;;;;;4994185;28;20042;-64
2021/12/15 12:31:24;;;;;;;19.65;10.48;;;;;;;;;;4992807;28;20474;-65
2021/12/15 12:33:51;;;;;;;18.20;9.73;;;;;;;;;;4993767;28;20042;-65
2021/12/15 12:36:17;;;;;;;21.35;10.55;;;;;;;;;;4990731;28;20142;-64
2021/12/15 12:38:43;;;;;;;18.65;10.23;;;;;;;;;;4996439;28;20045;-65
2021/12/15 12:41:13;;;;;;;22.55;9.93;;;;;;;;;;4992312;28;20844;-64
2021/12/15 12:43:40;;;;;;;16.40;8.80;;;;;;;;;;4993416;28;20080;-65
2021/12/15 12:46:11;;;;;;;21.85;10.70;;;;;;;;;;4990855;28;20552;-64
2021/12/15 12:59:55;;;;;;;18.38;9.85;;;;;;;;;;4991669;28;20152;-65
2021/12/15 13:02:21;;;;;;;21.92;10.70;;;;;;;;;;4986345;28;20832;-64
2021/12/15 13:04:47;;;;;;;21.05;10.52;;;;;;;;;;4990501;28;20037;-64
2021/12/15 13:07:13;;;;;;;23.38;10.68;;;;;;;;;;4997084;28;20935;-64
2021/12/15 13:09:39;;;;;;;21.15;10.88;;;;;;;;;;4989691;28;20129;-65
2021/12/15 13:12:08;;;;;;;21.88;10.98;;;;;;;;;;4999296;28;20737;-65
2021/12/15 13:14:41;;;;;;;19.92;9.82;;;;;;;;;;4998336;28;20030;-64
2021/12/15 13:17:13;;;;;;;23.35;11.35;;;;;;;;;;4993715;28;20394;-65
2021/12/15 13:19:44;;;;;;;20.05;10.57;;;;;;;;;;4999774;28;20083;-64
2021/12/15 13:30:31;;;;;;;18.73;9.88;;;;;;;;;;4995996;28;20038;-65
2021/12/15 13:33:05;;;;;;;23.73;10.95;;;;;;;;;;4995854;28;20031;-65
2021/12/15 13:35:31;;;;;;;18.65;10.32;;;;;;;;;;4991496;28;20029;-65
2021/12/15 13:37:59;;;;;;;35.28;15.30;;;;;;;;;;4981155;28;20084;-64
2021/12/15 13:40:25;;;;;;;25.38;16.70;;;;;;;;;;5000120;28;20057;-64
2021/12/15 13:43:02;;;;;;;20.05;11.00;;;;;;;;;;4995990;28;20123;-64
2021/12/15 13:45:34;;;;;;;23.85;11.32;;;;;;;;;;4993897;28;20152;-64
2021/12/15 13:48:06;;;;;;;22.60;13.15;;;;;;;;;;4992008;28;20114;-64
2021/12/15 13:50:50;;;;;;;22.00;14.05;;;;;;;;;;4987569;28;20065;-64
2021/12/15 13:53:34;;;;;;;22.90;12.70;;;;;;;;;;4995579;28;20739;-64
2021/12/15 13:56:00;;;;;;;20.30;11.32;;;;;;;;;;5002482;28;20084;-68
2021/12/15 13:58:26;;;;;;;20.73;10.57;;;;;;;;;;4997073;28;20045;-68
2021/12/15 14:00:54;;;;;;;18.17;10.05;;;;;;;;;;5000901;28;20052;-68
2021/12/15 14:03:20;;;;;;;21.17;10.25;;;;;;;;;;4998888;28;20032;-69
2021/12/15 14:05:45;;;;;;;19.10;9.02;;;9.80;99.90;;;;;;4992282;28;20109;-68
2021/12/15 14:08:11;;;;;;;14.88;8.88;;;;;;;;;;5000862;28;20049;-68
2021/12/15 14:10:37;;;;;;;15.27;8.77;;;;;;;;;;4999101;28;20046;-69
2021/12/15 14:13:03;;;;;;;22.80;8.50;;;;;;;;;;4997311;28;20390;-69
2021/12/15 14:15:29;;;;;;;17.63;9.55;;;;;;;;;;5000545;28;20026;-70
2021/12/15 14:17:55;;;;;;;16.83;8.30;;;;;;;;;;4998427;28;20049;-69
2021/12/15 14:20:21;;;;;;;13.82;7.63;;;;;;;;;;4994834;28;20133;-69
2021/12/15 14:22:47;;;;;;;15.70;8.60;;;;;;;;;;4996044;28;20034;-70
2021/12/15 14:25:13;;;;;;;17.23;8.80;;;;;;;;;;4994218;28;20046;-68
2021/12/15 14:27:39;;;;;;;13.82;7.45;;;;;;;;;;4998220;28;20034;-69
2021/12/15 14:30:04;;;;;;;19.17;8.45;;;10.00;99.90;;;;;;5001586;28;20038;-68
2021/12/15 14:32:30;;;;;;;15.75;8.63;;;;;;;;;;4994278;28;20553;-68
2021/12/15 14:34:56;;;;;;;16.20;9.00;;;;;;;;;;4996150;28;20034;-71
2021/12/15 14:37:22;;;;;;;18.98;9.43;;;;;;;;;;4997090;28;20481;-70
2021/12/15 14:39:48;;;;;;;15.27;8.45;;;;;;;;;;4993256;28;20041;-68
2021/12/15 14:42:15;;;;;;;21.75;10.20;;;;;;;;;;4998018;28;20044;-69
2021/12/15 14:44:40;;;;;;;14.82;8.30;;;;;;;;;;5002105;28;20141;-68
2021/12/15 14:47:06;;;;;;;16.45;7.47;;;;;;;;;;4991786;28;20161;-68
2021/12/15 14:49:32;;;;;;;23.88;10.80;;;;;;;;;;4998065;28;20783;-69
2021/12/15 14:51:58;;;;;;;16.20;8.65;;;10.10;99.90;;;;;;4999464;28;20032;-70
2021/12/15 14:54:24;;;;;;;23.05;11.18;;;;;;;;;;4995096;28;20036;-70
2021/12/15 14:56:50;;;;;;;16.45;9.00;;;;;;;;;;4995017;28;20084;-68
2021/12/15 14:59:16;;;;;;;18.80;8.65;;;;;;;;;;4990872;28;20034;-68
2021/12/15 15:01:42;;;;;;;17.95;9.23;;;;;;;;;;4993855;28;20034;-68
2021/12/15 15:04:08;;;;;;;14.38;7.82;;;;;;;;;;5001631;28;20037;-69
2021/12/15 15:06:34;;;;;;;18.30;8.68;;;;;;;;;;4999188;28;20038;-68
2021/12/15 15:09:00;;;;;;;19.00;9.48;;;;;;;;;;4994749;28;20030;-68
2021/12/15 15:11:27;;;;;;;21.67;9.05;;;9.40;99.90;;;;;;5001491;28;20108;-68
2021/12/15 15:13:53;;;;;;;19.63;10.55;;;9.30;99.90;;;;;;4990265;28;20095;-68
2021/12/15 15:16:19;;;;;;;18.20;8.75;;;;;;;;;;4998119;28;20037;-68
2021/12/15 15:18:45;;;;;;;20.20;8.93;;;;;;;;;;5000395;28;20037;-68
2021/12/15 15:21:12;;;;;;;17.95;8.98;;;10.00;99.90;;;;;;4998702;28;20038;-65
2021/12/15 15:23:38;;;;;;;18.08;8.90;;;;;;;;;;4994935;28;20108;-64
2021/12/15 15:26:04;;;;;;;21.45;9.73;;;;;;;;;;4989250;28;20042;-65
2021/12/15 15:28:31;;;;;;;16.48;9.60;;;;;;;;;;4991024;28;20040;-65
2021/12/15 15:30:57;;;;;;;18.13;10.18;;;;;;;;;;4996234;28;20128;-65
2021/12/15 15:33:23;;;;;;;17.52;9.77;;;;;;;;;;4998469;28;20029;-65